Time;durP1;ratioP1;P1;durP2;ratioP2;P2;SDS_P1;SDS_P2;PMS_P1;PMS_P2;Temp;Humidity;BMP_temperature;BMP_pressure;BME280_temperature;BME280_humidity;BME280_pressure;Samples;Min_cycle;Max_cycle;Signal;HPM_P1;HPM_P2
2022/02/18 00:01:16;;;;;;;6.95;2.92;;;;;;;;;;6242005;22;20031;-79
2022/02/18 00:03:45;;;;;;;4.18;2.63;;;;;;;;;;6277287;22;20024;-79
2022/02/18 00:06:13;;;;;;;6.85;2.67;;;;;;;;;;6280397;22;20034;-79
2022/02/18 00:08:41;;;;;;;10.52;3.03;;;;;;;;;;6272418;22;20031;-79
2022/02/18 00:11:09;;;;;;;6.20;3.58;;;;;;;;;;6279924;22;20308;-79
2022/02/18 00:13:37;;;;;;;7.57;3.63;;;;;;;;;;6267130;22;20028;-79
2022/02/18 00:16:05;;;;;;;10.35;4.45;;;;;;;;;;6247629;22;20350;-79
2022/02/18 00:18:34;;;;;;;9.93;4.20;;;;;;;;;;6280100;22;20019;-79
2022/02/18 00:21:02;;;;;;;20.70;7.28;;;;;;;;;;6271188;22;20513;-79
2022/02/18 00:23:31;;;;;;;15.05;5.40;;;;;;;;;;6277442;22;20047;-77
2022/02/18 00:25:59;;;;;;;9.25;6.25;;;;;;;;;;6252943;22;20019;-79
2022/02/18 00:28:29;;;;;;;8.87;4.63;;;;;;;;;;6272479;22;20020;-79
2022/02/18 00:30:58;;;;;;;8.98;4.25;;;;;;;;;;6279591;22;20011;-79
2022/02/18 00:33:27;;;;;;;14.18;4.05;;;;;;;;;;6269736;22;20024;-79
2022/02/18 00:35:55;;;;;;;3.58;1.80;;;;;;;;;;6275446;22;20023;-79
2022/02/18 00:38:24;;;;;;;4.20;3.78;;;;;;;;;;6279952;22;20015;-79
2022/02/18 00:40:53;;;;;;;23.45;7.05;;;;;;;;;;6271892;22;20028;-79
2022/02/18 00:43:25;;;;;;;6.00;2.67;;;;;;;;;;6277563;22;20026;-78
2022/02/18 00:45:53;;;;;;;6.63;3.03;;;;;;;;;;6252672;22;20019;-79
2022/02/18 00:48:21;;;;;;;6.50;2.05;;;;;;;;;;6273718;22;20478;-79
2022/02/18 00:50:49;;;;;;;8.32;3.60;;;;;;;;;;6269513;22;20038;-79
2022/02/18 00:53:20;;;;;;;7.15;2.47;;;;;;;;;;6216888;22;20028;-79
2022/02/18 00:55:50;;;;;;;6.68;4.03;;;;;;;;;;6276162;22;20024;-79
2022/02/18 00:58:20;;;;;;;5.60;1.85;;;;;;;;;;6215812;22;20019;-79
2022/02/18 01:00:51;;;;;;;10.00;3.13;;;;;;;;;;6271291;22;20031;-78
2022/02/18 01:03:21;;;;;;;9.20;3.35;;;;;;;;;;6251668;22;20015;-79
2022/02/18 01:05:49;;;;;;;17.73;4.80;;;;;;;;;;6280037;22;20016;-79
2022/02/18 01:08:18;;;;;;;4.00;2.78;;;;;;;;;;6273211;22;20035;-79
2022/02/18 01:10:46;;;;;;;3.30;2.55;;;;;;;;;;6252356;22;20016;-78
2022/02/18 01:13:14;;;;;;;6.55;2.00;;;;;;;;;;6242472;22;20024;-79
2022/02/18 01:15:42;;;;;;;11.25;3.75;;;;;;;;;;6248808;22;20050;-79
2022/02/18 01:18:10;;;;;;;9.05;5.25;;;;;;;;;;6279616;22;20038;-79
2022/02/18 01:20:39;;;;;;;18.13;2.63;;;;;;;;;;6272809;22;20023;-79
2022/02/18 01:23:07;;;;;;;7.70;3.15;;;;;;;;;;6279209;22;20072;-79
2022/02/18 01:25:35;;;;;;;3.20;2.70;;;;;;;;;;6268219;22;20043;-79
2022/02/18 01:28:04;;;;;;;7.15;3.03;;;;;;;;;;6240539;22;20031;-79
2022/02/18 01:30:33;;;;;;;7.00;3.15;;;;;;;;;;6251933;22;20011;-79
2022/02/18 01:33:01;;;;;;;12.32;3.42;;;;;;;;;;6270980;22;20027;-79
2022/02/18 01:35:32;;;;;;;4.93;3.60;;;;;;;;;;6276990;22;20023;-79
2022/02/18 01:38:02;;;;;;;4.10;3.20;;;;;;;;;;6279076;22;20020;-79
2022/02/18 01:40:31;;;;;;;6.10;5.47;;;;;;;;;;6272422;22;20039;-79
2022/02/18 01:42:59;;;;;;;15.48;2.38;;;;;;;;;;6279453;22;20019;-79
2022/02/18 01:45:27;;;;;;;6.53;2.40;;;;;;;;;;6241209;22;20031;-79
2022/02/18 01:47:55;;;;;;;8.68;2.97;;;;;;;;;;6275390;22;20019;-79
2022/02/18 01:50:24;;;;;;;7.93;3.53;;;;;;;;;;6278805;22;20462;-87
2022/02/18 01:52:53;;;;;;;13.48;3.78;;;;;;;;;;6244090;22;20028;-79
2022/02/18 01:55:21;;;;;;;9.85;4.00;;;;;;;;;;6277001;22;20016;-79
2022/02/18 01:57:51;;;;;;;16.33;4.03;;;;;;;;;;6278889;22;20012;-78
2022/02/18 02:00:21;;;;;;;4.80;2.17;;;;;;;;;;6240025;22;20023;-79
2022/02/18 02:02:52;;;;;;;13.10;3.70;;;;;;;;;;6252073;22;20011;-79
2022/02/18 02:05:21;;;;;;;11.73;4.15;;;;;;;;;;6269466;22;20046;-79
2022/02/18 02:07:50;;;;;;;3.75;2.05;;;;;;;;;;6248392;22;20054;-79
2022/02/18 02:10:21;;;;;;;4.15;3.80;;;;;;;;;;6251626;22;20462;-79
2022/02/18 02:12:51;;;;;;;5.88;2.88;;;;;;;;;;6271792;22;20027;-79
2022/02/18 02:15:35;;;;;;;7.18;3.88;;;;;;;;;;6248791;22;20023;-79
2022/02/18 02:18:10;;;;;;;3.40;2.97;;;;;;;;;;6251148;22;20019;-79
2022/02/18 02:20:38;;;;;;;11.52;4.72;;;;;;;;;;6244665;22;20019;-79
2022/02/18 02:23:06;;;;;;;2.70;2.50;;;;;;;;;;6278656;22;20442;-79
2022/02/18 02:25:39;;;;;;;14.15;3.97;;;;;;;;;;6240547;22;20023;-78
2022/02/18 02:28:25;;;;;;;16.95;5.00;;;;;;;;;;6238714;22;20024;-79
2022/02/18 02:30:53;;;;;;;6.53;2.47;;;;;;;;;;6246089;23;20020;-79
2022/02/18 02:33:22;;;;;;;9.48;2.92;;;;;;;;;;6236565;23;20024;-79
2022/02/18 02:35:52;;;;;;;17.87;6.63;;;;;;;;;;6242862;23;20047;-79
2022/02/18 02:38:20;;;;;;;9.93;4.15;;;;;;;;;;6247443;23;20016;-79
2022/02/18 02:40:50;;;;;;;5.45;2.33;;;;;;;;;;6209396;23;20024;-79
2022/02/18 02:43:18;;;;;;;9.60;3.33;;;;;;;;;;6244247;22;20324;-79
2022/02/18 02:45:49;;;;;;;3.78;2.38;;;;;;;;;;6246114;23;20343;-79
2022/02/18 02:48:19;;;;;;;;;;;;;;;;;;6240459;23;20031;-80
2022/02/18 02:50:54;;;;;;;16.80;3.90;;;;;;;;;;6245916;23;19919;-80
2022/02/18 02:53:24;;;;;;;6.32;2.65;;;;;;;;;;6235750;23;20032;-79
2022/02/18 02:55:53;;;;;;;7.32;3.88;;;;;;;;;;6242486;23;20052;-79
2022/02/18 02:58:21;;;;;;;3.50;3.03;;;;;;;;;;6246929;23;20056;-79
2022/02/18 03:00:52;;;;;;;9.80;2.88;;;;;;;;;;6210167;23;20035;-79
2022/02/18 03:03:35;;;;;;;7.15;3.38;;;;;;;;;;6244283;22;20463;-77
2022/02/18 03:06:03;;;;;;;5.30;2.05;;;;;;;;;;6245631;23;20020;-79
2022/02/18 03:08:33;;;;;;;9.18;2.70;;;;;;;;;;6239141;23;20019;-79
2022/02/18 03:11:14;;;;;;;5.50;2.42;;;;;;;;;;6246158;23;20039;-79
2022/02/18 03:14:00;;;;;;;3.47;3.03;;;;;;;;;;6246926;22;20034;-78
2022/02/18 03:16:29;;;;;;;5.85;2.80;;;;;;;;;;6239404;22;20047;-79
2022/02/18 03:18:57;;;;;;;4.20;2.03;;;;;;;;;;6247539;23;20035;-79
2022/02/18 03:21:25;;;;;;;16.42;2.65;;;;;;;;;;6235943;23;20024;-79
2022/02/18 03:23:53;;;;;;;3.67;2.10;;;;;;;;;;6243861;22;20020;-79
2022/02/18 03:26:23;;;;;;;7.60;3.78;;;;;;;;;;6246049;23;20035;-78
2022/02/18 03:29:03;;;;;;;3.90;1.83;;;;;;;;;;6236122;22;20031;-79
2022/02/18 03:31:49;;;;;;;12.02;2.28;;;;;;;;;;6244141;22;20042;-79
2022/02/18 03:34:20;;;;;;;4.15;2.40;;;;;;;;;;6246019;23;20027;-79
2022/02/18 03:36:49;;;;;;;12.10;2.70;;;;;;;;;;6240216;22;20028;-79
2022/02/18 03:39:20;;;;;;;5.43;2.30;;;;;;;;;;6234585;22;20339;-78
2022/02/18 03:41:49;;;;;;;2.83;1.95;;;;;;;;;;6246083;23;20246;-78
2022/02/18 03:44:18;;;;;;;5.22;2.05;;;;;;;;;;6240118;23;20043;-79
2022/02/18 03:46:54;;;;;;;4.95;3.53;;;;;;;;;;6246290;23;20020;-79
2022/02/18 03:49:24;;;;;;;9.38;3.53;;;;;;;;;;6235860;22;20028;-79
2022/02/18 03:51:56;;;;;;;8.98;2.33;;;;;;;;;;6236836;23;20032;-79
2022/02/18 03:54:26;;;;;;;3.50;3.10;;;;;;;;;;6247636;23;20016;-79
2022/02/18 03:56:58;;;;;;;15.75;4.50;;;;;;;;;;6211270;23;20431;-79
2022/02/18 03:59:29;;;;;;;4.50;2.17;;;;;;;;;;6210988;22;20016;-79
2022/02/18 04:02:00;;;;;;;4.77;3.00;;;;;;;;;;6272945;22;20012;-78
2022/02/18 04:04:29;;;;;;;6.15;3.85;;;;;;;;;;6241755;23;20020;-79
2022/02/18 04:07:24;;;;;;;6.13;4.97;;;;;;;;;;6245932;22;20459;-80
2022/02/18 04:09:59;;;;;;;6.93;3.67;;;;;;;;;;6247206;23;20474;-76
2022/02/18 04:12:32;;;;;;;8.85;4.35;;;;;;;;;;6240819;23;20031;-79
2022/02/18 04:15:10;;;;;;;9.73;3.83;;;;;;;;;;6246481;23;20020;-80
2022/02/18 04:17:39;;;;;;;11.25;3.35;;;;;;;;;;6235854;23;20035;-80
2022/02/18 04:20:23;;;;;;;18.48;4.65;;;;;;;;;;6242436;23;20020;-80
2022/02/18 04:23:27;;;;;;;16.55;5.55;;;;;;;;;;6245889;22;20020;-79
2022/02/18 04:25:56;;;;;;;4.38;2.78;;;;;;;;;;6247539;23;20035;-79
2022/02/18 04:28:24;;;;;;;7.03;2.83;;;;;;;;;;6248632;22;20328;-79
2022/02/18 04:30:52;;;;;;;5.50;3.10;;;;;;;;;;6280298;22;20012;-78
2022/02/18 04:33:21;;;;;;;26.45;4.07;;;;;;;;;;6269842;22;20020;-79
2022/02/18 04:35:49;;;;;;;6.50;1.90;;;;;;;;;;6276234;22;20035;-79
2022/02/18 04:38:18;;;;;;;8.38;4.10;;;;;;;;;;6279532;22;20533;-79
2022/02/18 04:40:46;;;;;;;9.98;4.22;;;;;;;;;;6272512;22;20020;-80
2022/02/18 04:43:15;;;;;;;7.97;2.70;;;;;;;;;;6278796;22;20011;-80
2022/02/18 04:45:43;;;;;;;9.68;2.95;;;;;;;;;;6279389;22;20012;-80
2022/02/18 04:48:11;;;;;;;25.33;5.70;;;;;;;;;;6274076;22;20020;-78
2022/02/18 04:50:39;;;;;;;11.48;3.00;;;;;;;;;;6279808;22;20022;-80
2022/02/18 04:53:28;;;;;;;13.57;4.50;;;;;;;;;;6269290;22;20750;-80
2022/02/18 04:55:58;;;;;;;9.75;2.15;;;;;;;;;;6269046;22;20047;-80
2022/02/18 04:58:26;;;;;;;7.47;2.85;;;;;;;;;;6240508;22;20020;-79
2022/02/18 05:00:54;;;;;;;6.85;3.92;;;;;;;;;;6270771;22;20024;-80
2022/02/18 05:03:22;;;;;;;10.07;3.67;;;;;;;;;;6277756;22;20018;-79
2022/02/18 05:05:51;;;;;;;14.55;3.08;;;;;;;;;;6279890;22;20012;-80
2022/02/18 05:08:19;;;;;;;9.48;2.85;;;;;;;;;;6247095;22;20027;-80
2022/02/18 05:10:48;;;;;;;9.45;6.03;;;;;;;;;;6279450;22;20443;-79
2022/02/18 05:13:16;;;;;;;7.95;5.72;;;;;;;;;;6269631;22;20027;-80
2022/02/18 05:15:44;;;;;;;8.82;3.33;;;;;;;;;;6276503;22;20016;-79
2022/02/18 05:18:12;;;;;;;12.40;3.42;;;;;;;;;;6279353;22;20018;-79
2022/02/18 05:20:41;;;;;;;5.00;2.58;;;;;;;;;;6272265;22;20028;-80
2022/02/18 05:23:09;;;;;;;5.38;2.42;;;;;;;;;;6279388;22;20435;-79
2022/02/18 05:25:37;;;;;;;6.32;3.50;;;;;;;;;;6267801;22;20028;-80
2022/02/18 05:28:07;;;;;;;16.52;2.22;;;;;;;;;;6274071;22;20524;-80
2022/02/18 05:30:35;;;;;;;5.43;2.88;;;;;;;;;;6278865;22;20023;-79
2022/02/18 05:33:04;;;;;;;7.43;2.72;;;;;;;;;;6270745;22;20026;-79
2022/02/18 05:35:32;;;;;;;10.45;1.58;;;;;;;;;;6276914;22;20022;-80
2022/02/18 05:38:00;;;;;;;14.07;2.70;;;;;;;;;;6269871;22;20012;-80
2022/02/18 05:40:28;;;;;;;7.43;2.47;;;;;;;;;;6272634;22;20023;-80
2022/02/18 05:42:57;;;;;;;3.72;2.50;;;;;;;;;;6279246;22;20473;-80
2022/02/18 05:45:25;;;;;;;7.55;2.80;;;;;;;;;;6268236;22;20023;-79
2022/02/18 05:47:54;;;;;;;9.20;4.70;;;;;;;;;;6248441;22;20027;-80
2022/02/18 05:50:22;;;;;;;23.40;5.70;;;;;;;;;;6278760;22;20012;-80
2022/02/18 05:52:50;;;;;;;6.63;2.88;;;;;;;;;;6271457;22;20019;-81
2022/02/18 05:55:18;;;;;;;6.80;3.13;;;;;;;;;;6277684;22;20012;-79
2022/02/18 05:57:46;;;;;;;23.13;4.60;;;;;;;;;;6277916;22;20020;-81
2022/02/18 06:00:14;;;;;;;7.75;2.42;;;;;;;;;;6272714;22;20027;-79
2022/02/18 06:02:44;;;;;;;16.23;3.05;;;;;;;;;;6252089;22;20018;-81
2022/02/18 06:05:12;;;;;;;16.15;3.60;;;;;;;;;;6269323;22;20020;-79
2022/02/18 06:07:43;;;;;;;12.75;3.65;;;;;;;;;;6276188;22;20016;-80
2022/02/18 06:10:11;;;;;;;;;;;;;;;;;;6279328;22;20591;-80
2022/02/18 06:12:39;;;;;;;11.40;3.53;;;;;;;;;;6244687;22;19919;-79
2022/02/18 06:15:08;;;;;;;5.50;1.77;;;;;;;;;;6278151;22;20350;-79
2022/02/18 06:17:39;;;;;;;9.15;2.38;;;;;;;;;;6267161;22;20030;-79
2022/02/18 06:20:07;;;;;;;;;;;;;;;;;;6268171;22;20019;-82
2022/02/18 06:22:36;;;;;;;7.38;4.75;;;;;;;;;;6251657;22;19930;-82
2022/02/18 06:25:05;;;;;;;9.82;3.30;;;;;;;;;;6226491;22;20032;-82
2022/02/18 06:27:33;;;;;;;5.35;3.53;;;;;;;;;;6276385;22;20024;-82
2022/02/18 06:30:02;;;;;;;11.18;2.33;;;;;;;;;;6268665;22;20439;-82
2022/02/18 06:32:45;;;;;;;12.02;2.03;;;;;;;;;;6272273;22;20027;-84
2022/02/18 06:35:13;;;;;;;4.57;2.55;;;;;;;;;;6277014;22;20023;-81
2022/02/18 06:37:41;;;;;;;7.80;3.28;;;;;;;;;;6276952;22;20027;-81
2022/02/18 06:40:10;;;;;;;8.23;2.25;;;;;;;;;;6274027;22;20038;-81
2022/02/18 06:42:38;;;;;;;3.92;3.42;;;;;;;;;;6251141;22;20016;-80
2022/02/18 06:45:07;;;;;;;8.10;2.38;;;;;;;;;;6269087;22;20039;-81
2022/02/18 06:47:36;;;;;;;8.10;3.95;;;;;;;;;;6276365;22;20027;-81
2022/02/18 06:50:04;;;;;;;5.47;2.47;;;;;;;;;;6279158;22;20023;-81
2022/02/18 06:52:33;;;;;;;2.28;2.10;;;;;;;;;;6272380;22;20019;-81
2022/02/18 06:55:01;;;;;;;5.05;2.15;;;;;;;;;;6277869;22;20012;-82
2022/02/18 06:57:29;;;;;;;6.55;3.28;;;;;;;;;;6268239;22;20050;-83
2022/02/18 06:59:57;;;;;;;9.93;2.90;;;;;;;;;;6273645;22;20347;-83
2022/02/18 07:02:25;;;;;;;9.70;5.05;;;;;;;;;;6279090;22;20346;-83
2022/02/18 07:04:53;;;;;;;4.10;2.53;;;;;;;;;;6243440;22;20020;-82
2022/02/18 07:07:21;;;;;;;5.82;3.15;;;;;;;;;;6273942;22;20466;-82
2022/02/18 07:09:49;;;;;;;11.32;5.03;;;;;;;;;;6277227;22;20023;-83
2022/02/18 07:12:19;;;;;;;4.07;2.35;;;;;;;;;;6272916;22;20031;-82
2022/02/18 07:14:47;;;;;;;3.15;2.95;;;;;;;;;;6278216;22;20020;-82
2022/02/18 07:17:24;;;;;;;6.22;2.55;;;;;;;;;;6268720;22;20668;-79
2022/02/18 07:19:53;;;;;;;3.20;2.78;;;;;;;;;;6274108;22;20461;-83
2022/02/18 07:22:21;;;;;;;20.40;4.45;;;;;;;;;;6215906;22;20020;-84
2022/02/18 07:24:52;;;;;;;5.97;2.35;;;;;;;;;;6216651;22;20027;-83
2022/02/18 07:27:21;;;;;;;3.78;3.42;;;;;;;;;;6279681;22;20220;-83
2022/02/18 07:29:49;;;;;;;9.85;3.88;;;;;;;;;;6211566;23;20020;-82
2022/02/18 07:32:17;;;;;;;9.57;2.33;;;;;;;;;;6237351;23;20028;-83
2022/02/18 07:34:45;;;;;;;3.03;2.03;;;;;;;;;;6249321;23;20012;-84
2022/02/18 07:37:13;;;;;;;12.73;2.30;;;;;;;;;;6240620;22;20016;-84
2022/02/18 07:39:41;;;;;;;7.38;2.97;;;;;;;;;;6236942;23;20031;-79
2022/02/18 07:42:10;;;;;;;3.10;2.67;;;;;;;;;;6249745;23;20016;-82
2022/02/18 07:44:38;;;;;;;7.32;3.00;;;;;;;;;;6265868;22;20042;-83
2022/02/18 07:47:06;;;;;;;8.05;1.90;;;;;;;;;;6247858;23;20016;-83
2022/02/18 07:49:50;;;;;;;29.63;3.70;;;;;;;;;;6172789;23;20028;-83
2022/02/18 07:52:20;;;;;;;6.65;2.22;;;;;;;;;;6242499;23;20024;-83
2022/02/18 07:54:49;;;;;;;8.45;3.80;;;;;;;;;;6237547;23;20020;-83
2022/02/18 07:57:17;;;;;;;7.43;3.42;;;;;;;;;;6211422;23;20032;-83
2022/02/18 07:59:47;;;;;;;4.57;2.55;;;;;;;;;;6210553;23;20028;-83
2022/02/18 08:02:15;;;;;;;6.63;3.47;;;;;;;;;;6247549;23;20039;-83
2022/02/18 08:04:45;;;;;;;9.60;2.30;;;;;;;;;;6211951;23;20430;-83
2022/02/18 08:07:14;;;;;;;5.28;2.63;;;;;;;;;;6236980;22;20020;-83
2022/02/18 08:09:42;;;;;;;9.18;3.83;;;;;;;;;;6272838;22;20015;-84
2022/02/18 08:12:19;;;;;;;8.88;4.38;;;;;;;;;;6212132;23;20031;-84
2022/02/18 08:14:47;;;;;;;6.50;2.80;;;;;;;;;;6211303;23;20020;-83
2022/02/18 08:17:15;;;;;;;9.63;2.95;;;;;;;;;;6211500;23;20024;-84
2022/02/18 08:19:43;;;;;;;3.08;1.60;;;;;;;;;;6211600;23;20538;-83
2022/02/18 08:22:13;;;;;;;4.35;2.47;;;;;;;;;;6249535;23;20023;-80
2022/02/18 08:24:41;;;;;;;8.73;3.42;;;;;;;;;;6240307;23;20459;-80
2022/02/18 08:27:09;;;;;;;5.22;2.00;;;;;;;;;;6212046;23;20017;-80
2022/02/18 08:29:37;;;;;;;8.40;2.20;;;;;;;;;;6234930;23;20039;-80
2022/02/18 08:32:06;;;;;;;13.60;3.38;;;;;;;;;;6268522;22;20035;-80
2022/02/18 08:34:34;;;;;;;10.95;2.22;;;;;;;;;;6248950;23;20023;-80
2022/02/18 08:37:10;;;;;;;5.15;2.35;;;;;;;;;;6239052;22;20031;-80
2022/02/18 08:39:40;;;;;;;5.07;2.65;;;;;;;;;;6246033;22;20531;-80
2022/02/18 08:42:08;;;;;;;8.77;2.45;;;;;;;;;;6249002;23;20027;-80
2022/02/18 08:44:36;;;;;;;18.85;3.00;;;;;;;;;;6241854;22;20032;-80
2022/02/18 08:47:06;;;;;;;4.53;1.80;;;;;;;;;;6272967;22;20023;-80
2022/02/18 08:49:35;;;;;;;2.25;1.77;;;;;;;;;;6237651;22;20028;-80
2022/02/18 08:52:03;;;;;;;9.43;2.83;;;;;;;;;;6244465;22;20020;-80
2022/02/18 08:54:34;;;;;;;6.15;3.22;;;;;;;;;;6248800;23;20016;-80
2022/02/18 08:57:02;;;;;;;5.47;3.90;;;;;;;;;;6238657;22;20020;-80
2022/02/18 08:59:30;;;;;;;11.85;2.63;;;;;;;;;;6245646;22;20024;-80
2022/02/18 09:02:00;;;;;;;11.48;4.57;;;;;;;;;;6272268;22;20340;-80
2022/02/18 09:04:28;;;;;;;11.65;5.47;;;;;;;;;;6242938;22;20027;-80
2022/02/18 09:06:59;;;;;;;3.85;2.35;;;;;;;;;;6249018;23;20027;-80
2022/02/18 09:09:28;;;;;;;13.93;3.78;;;;;;;;;;6237577;22;20028;-81
2022/02/18 09:11:56;;;;;;;4.05;1.73;;;;;;;;;;6243072;23;20347;-81
2022/02/18 09:14:24;;;;;;;9.27;4.80;;;;;;;;;;6247681;23;20020;-80
2022/02/18 09:17:07;;;;;;;21.55;2.88;;;;;;;;;;6238090;22;20032;-80
2022/02/18 09:19:35;;;;;;;9.98;3.72;;;;;;;;;;6244247;23;20020;-80
2022/02/18 09:22:03;;;;;;;8.80;2.58;;;;;;;;;;6248621;23;20016;-80
2022/02/18 09:24:32;;;;;;;3.45;2.28;;;;;;;;;;6242172;22;20024;-80
2022/02/18 09:27:00;;;;;;;4.28;1.58;;;;;;;;;;6248562;23;20020;-80
2022/02/18 09:29:28;;;;;;;6.00;2.55;;;;;;;;;;6255517;22;20024;-80
2022/02/18 09:31:56;;;;;;;11.45;5.72;;;;;;;;;;6275213;22;20023;-80
2022/02/18 09:34:27;;;;;;;4.80;3.15;;;;;;;;;;6278907;22;20019;-80
2022/02/18 09:36:55;;;;;;;5.18;3.08;;;;;;;;;;6271218;22;20443;-80
2022/02/18 09:39:23;;;;;;;12.27;2.97;;;;;;;;;;6277066;22;20019;-80
2022/02/18 09:41:51;;;;;;;7.97;1.98;;;;;;;;;;6278652;22;20011;-80
2022/02/18 09:44:20;;;;;;;2.80;1.88;;;;;;;;;;6272870;22;20035;-81
2022/02/18 09:46:49;;;;;;;13.05;2.95;;;;;;;;;;6243446;22;20613;-81
2022/02/18 09:49:17;;;;;;;2.55;1.63;;;;;;;;;;6240116;22;20047;-81
2022/02/18 09:51:45;;;;;;;5.38;2.25;;;;;;;;;;6275437;22;20016;-83
2022/02/18 09:54:15;;;;;;;2.72;1.40;;;;;;;;;;6278420;22;20015;-80
2022/02/18 09:56:45;;;;;;;5.93;2.20;;;;;;;;;;6269749;22;20451;-80
2022/02/18 09:59:14;;;;;;;2.10;1.60;;;;;;;;;;6276829;22;20015;-81
2022/02/18 10:01:47;;;;;;;6.28;4.88;;;;;;;;;;6242008;22;20019;-81
2022/02/18 10:04:15;;;;;;;3.67;1.98;;;;;;;;;;6271210;22;20024;-81
2022/02/18 10:06:44;;;;;;;11.25;2.60;;;;;;;;;;6278104;22;20012;-80
2022/02/18 10:09:12;;;;;;;4.22;2.05;;;;;;;;;;6268677;22;20505;-80
2022/02/18 10:11:58;;;;;;;4.22;3.55;;;;;;;;;;6239982;22;20023;-80
2022/02/18 10:14:26;;;;;;;7.57;4.85;;;;;;;;;;6277601;22;20034;-80
2022/02/18 10:16:54;;;;;;;39.35;26.63;;;;;;;;;;6270161;22;20028;-80
2022/02/18 10:19:28;;;;;;;100.38;62.13;;;;;;;;;;6274253;22;20011;-83
2022/02/18 10:22:12;;;;;;;33.30;22.23;;;;;;;;;;6279367;22;20327;-81
2022/02/18 10:24:41;;;;;;;9.63;2.67;;;;;;;;;;6271493;22;20765;-82
2022/02/18 10:27:13;;;;;;;9.80;6.22;;;;;;;;;;6251412;22;20015;-81
2022/02/18 10:30:00;;;;;;;6.47;5.78;;;;;;;;;;6173837;22;20027;-84
2022/02/18 10:32:28;;;;;;;8.57;5.53;;;;;;;;;;6222761;22;20028;-82
2022/02/18 10:35:04;;;;;;;27.85;14.63;;;;;;;;;;6195713;23;20716;-81
2022/02/18 10:37:39;;;;;;;7.30;3.08;;;;;;;;;;6236424;22;20028;-84
2022/02/18 10:40:16;;;;;;;2.97;2.75;;;;;;;;;;6216142;23;20032;-81
2022/02/18 10:42:45;;;;;;;2.83;2.73;;;;;;;;;;6247667;23;20016;-81
2022/02/18 10:45:24;;;;;;;4.28;2.58;;;;;;;;;;6232644;22;20259;-80
2022/02/18 10:48:05;;;;;;;8.35;4.82;;;;;;;;;;6249663;22;20028;-82
2022/02/18 10:50:33;;;;;;;;;;;;;;;;;;6215307;22;20015;-83
2022/02/18 10:53:12;;;;;;;8.73;2.55;;;;;;;;;;6269428;22;20224;-81
2022/02/18 10:55:50;;;;;;;3.50;2.33;;;;;;;;;;6275512;22;20026;-81
2022/02/18 10:58:38;;;;;;;14.27;3.03;;;;;;;;;;6250716;22;20043;-81
2022/02/18 11:01:08;;;;;;;10.52;2.40;;;;;;;;;;6242329;22;20024;-81
2022/02/18 11:03:38;;;;;;;8.88;3.22;;;;;;;;;;6278578;22;20024;-81
2022/02/18 11:06:38;;;;;;;3.13;2.83;;;;;;;;;;6280857;22;20016;-81
2022/02/18 11:09:06;;;;;;;5.47;1.85;;;;;;;;;;6219455;22;20661;-81
2022/02/18 11:11:37;;;;;;;4.15;3.05;;;;;;;;;;6187028;23;20020;-81
2022/02/18 11:14:08;;;;;;;6.10;2.67;;;;;;;;;;6237438;23;20012;-81
2022/02/18 11:16:38;;;;;;;5.22;1.80;;;;;;;;;;6243845;22;20031;-81
2022/02/18 11:19:07;;;;;;;38.38;9.13;;;;;;;;;;6237001;23;20020;-82
2022/02/18 11:21:36;;;;;;;5.50;3.30;;;;;;;;;;6236452;23;20024;-81
2022/02/18 11:24:07;;;;;;;11.20;3.10;;;;;;;;;;6244873;22;20063;-82
2022/02/18 11:26:35;;;;;;;10.70;2.42;;;;;;;;;;6250251;23;20020;-82
2022/02/18 11:29:03;;;;;;;3.38;3.05;;;;;;;;;;6240312;22;20483;-82
2022/02/18 11:31:32;;;;;;;8.25;2.22;;;;;;;;;;6247718;22;20012;-82
2022/02/18 11:34:19;;;;;;;3.90;2.53;;;;;;;;;;6248239;23;20016;-82
2022/02/18 11:36:47;;;;;;;6.22;2.40;;;;;;;;;;6242846;22;20730;-81
2022/02/18 11:39:33;;;;;;;6.18;2.13;;;;;;;;;;6246678;22;20343;-82
2022/02/18 11:42:20;;;;;;;2.85;2.15;;;;;;;;;;6249517;23;20035;-82
2022/02/18 11:44:50;;;;;;;5.38;1.88;;;;;;;;;;6241196;22;20028;-82
2022/02/18 11:47:23;;;;;;;10.77;2.70;;;;;;;;;;6238507;22;20024;-82
2022/02/18 11:49:52;;;;;;;4.78;2.78;;;;;;;;;;6249368;23;20016;-82
2022/02/18 11:52:22;;;;;;;8.98;2.78;;;;;;;;;;6243984;22;20498;-82
2022/02/18 11:54:50;;;;;;;19.33;4.82;;;;;;;;;;6248922;23;20463;-82
2022/02/18 11:57:19;;;;;;;4.07;2.55;;;;;;;;;;6239634;22;20021;-82
2022/02/18 12:00:08;;;;;;;11.60;7.38;;;;;;;;;;6245901;22;20031;-82
2022/02/18 12:02:42;;;;;;;2.97;2.40;;;;;;;;;;6249589;23;20333;-82
2022/02/18 12:05:12;;;;;;;5.85;3.67;;;;;;;;;;6240077;22;20039;-82
2022/02/18 12:07:41;;;;;;;5.68;3.70;;;;;;;;;;6246198;22;20027;-82
2022/02/18 12:10:10;;;;;;;7.47;3.65;;;;;;;;;;6247484;23;20056;-82
2022/02/18 12:12:41;;;;;;;6.93;2.15;;;;;;;;;;6241184;23;20039;-82
2022/02/18 12:15:09;;;;;;;11.80;4.45;;;;;;;;;;6248497;23;20019;-82
2022/02/18 12:17:39;;;;;;;15.02;8.32;;;;;;;;;;6238162;22;20028;-81
2022/02/18 12:20:11;;;;;;;9.63;2.70;;;;;;;;;;6244415;22;20024;-81
2022/02/18 12:22:39;;;;;;;6.03;2.33;;;;;;;;;;6249507;23;20051;-82
2022/02/18 12:25:36;;;;;;;1.73;1.50;;;;;;;;;;6239948;22;20028;-84
2022/02/18 12:28:20;;;;;;;4.00;2.15;;;;;;;;;;6244243;22;20020;-80
2022/02/18 12:30:58;;;;;;;3.13;1.98;;;;;;;;;;6238573;23;20019;-83
2022/02/18 12:33:29;;;;;;;6.00;1.63;;;;;;;;;;6211898;23;20036;-82
2022/02/18 12:35:57;;;;;;;3.13;1.75;;;;;;;;;;6244998;22;20051;-83
2022/02/18 12:38:25;;;;;;;8.45;2.88;;;;;;;;;;6248506;23;20016;-82
2022/02/18 12:40:53;;;;;;;14.80;3.58;;;;;;;;;;6238511;23;20031;-82
2022/02/18 12:43:23;;;;;;;4.00;1.80;;;;;;;;;;6236502;22;20012;-89
2022/02/18 12:45:55;;;;;;;4.30;1.40;;;;;;;;;;6250712;23;20016;-88
2022/02/18 12:48:34;;;;;;;3.55;1.80;;;;;;;;;;6242959;22;20557;-87
2022/02/18 12:51:07;;;;;;;15.02;4.75;;;;;;;;;;6240785;23;20016;-89
2022/02/18 12:53:35;;;;;;;9.40;2.53;;;;;;;;;;6216700;23;20027;-88
2022/02/18 12:56:12;;;;;;;19.70;4.45;;;;;;;;;;6215533;23;20031;-91
2022/02/18 12:58:40;;;;;;;3.30;2.95;;;;;;;;;;6238046;23;20031;-91
2022/02/18 13:01:13;;;;;;;24.23;16.23;;;;;;;;;;6240282;23;20024;-89
2022/02/18 13:03:42;;;;;;;8.18;3.35;;;;;;;;;;6246616;23;20016;-90
2022/02/18 13:06:10;;;;;;;6.07;4.70;;;;;;;;;;6249074;23;20012;-90
2022/02/18 13:08:38;;;;;;;3.70;3.33;;;;;;;;;;6186394;23;20024;-88
2022/02/18 13:11:11;;;;;;;13.27;7.68;;;;;;;;;;6238611;23;20343;-89
2022/02/18 13:13:39;;;;;;;2.83;2.58;;;;;;;;;;6210218;23;20546;-85
2022/02/18 13:16:07;;;;;;;2.63;2.40;;;;;;;;;;6229837;22;20028;-89
2022/02/18 13:18:36;;;;;;;2.22;2.03;;;;;;;;;;6256993;22;20022;-90
2022/02/18 13:21:05;;;;;;;5.22;2.33;;;;;;;;;;6271657;22;20035;-88
2022/02/18 13:23:33;;;;;;;2.67;2.38;;;;;;;;;;6215871;22;20024;-89
2022/02/18 13:26:04;;;;;;;4.72;2.20;;;;;;;;;;6252699;22;20016;-88
2022/02/18 13:28:45;;;;;;;6.53;2.63;;;;;;;;;;6272512;22;20047;-89
2022/02/18 13:31:14;;;;;;;4.65;2.92;;;;;;;;;;6279316;22;20012;-88
2022/02/18 13:33:49;;;;;;;2.53;1.73;;;;;;;;;;6282240;22;20020;-89
2022/02/18 13:36:19;;;;;;;14.02;4.78;;;;;;;;;;6279480;22;20455;-89
2022/02/18 13:38:51;;;;;;;9.23;4.03;;;;;;;;;;6285395;22;20015;-89
2022/02/18 13:41:27;;;;;;;5.88;3.25;;;;;;;;;;6274139;22;20055;-88
2022/02/18 13:43:56;;;;;;;5.40;1.98;;;;;;;;;;6274511;22;20020;-87
2022/02/18 13:46:32;;;;;;;5.28;2.33;;;;;;;;;;6287261;22;20012;-88
2022/02/18 13:49:03;;;;;;;2.00;1.90;;;;;;;;;;6212289;23;20482;-88
2022/02/18 13:51:34;;;;;;;4.72;4.32;;;;;;;;;;6216447;23;20024;-86
2022/02/18 13:54:02;;;;;;;4.97;2.23;;;;;;;;;;6216819;23;20016;-84
2022/02/18 13:56:30;;;;;;;2.80;2.60;;;;;;;;;;6208852;23;20020;-86
2022/02/18 13:59:17;;;;;;;3.50;3.03;;;;;;;;;;6222099;23;20016;-88
2022/02/18 14:01:47;;;;;;;4.43;2.55;;;;;;;;;;6214747;23;20028;-89
2022/02/18 14:04:16;;;;;;;5.15;2.00;;;;;;;;;;6199441;23;20021;-90
2022/02/18 14:06:44;;;;;;;2.03;1.88;;;;;;;;;;6189243;23;20012;-88
2022/02/18 14:09:12;;;;;;;38.38;7.32;;;;;;;;;;6204937;23;20048;-89
2022/02/18 14:11:47;;;;;;;5.53;2.22;;;;;;;;;;6216048;23;20025;-90
2022/02/18 14:14:19;;;;;;;3.92;2.45;;;;;;;;;;6217105;23;20013;-87
2022/02/18 14:16:52;;;;;;;2.92;1.55;;;;;;;;;;6210352;22;20032;-90
2022/02/18 14:19:20;;;;;;;4.68;1.63;;;;;;;;;;6215465;23;20012;-89
2022/02/18 14:22:02;;;;;;;2.58;1.55;;;;;;;;;;6216418;23;20024;-90
2022/02/18 14:24:37;;;;;;;7.13;2.00;;;;;;;;;;6212168;23;20031;-87
2022/02/18 14:27:06;;;;;;;4.70;1.75;;;;;;;;;;6219558;23;20332;-91
2022/02/18 14:29:34;;;;;;;4.50;1.77;;;;;;;;;;6211760;23;20024;-89
2022/02/18 14:32:02;;;;;;;3.33;1.95;;;;;;;;;;6217396;23;20020;-90
2022/02/18 14:34:30;;;;;;;3.47;2.20;;;;;;;;;;6220303;23;20016;-89
2022/02/18 14:37:00;;;;;;;2.58;1.77;;;;;;;;;;6213267;23;20039;-89
2022/02/18 14:39:38;;;;;;;4.78;1.70;;;;;;;;;;6207952;23;20020;-91
2022/02/18 14:42:15;;;;;;;2.35;2.13;;;;;;;;;;6224967;23;20008;-88
2022/02/18 14:44:47;;;;;;;2.83;2.60;;;;;;;;;;6209982;23;20025;-89
2022/02/18 14:47:16;;;;;;;5.45;2.17;;;;;;;;;;6223130;22;20016;-89
2022/02/18 14:49:45;;;;;;;3.38;2.50;;;;;;;;;;6255246;23;20039;-90
2022/02/18 14:52:18;;;;;;;3.37;2.13;;;;;;;;;;6246574;22;20347;-90
2022/02/18 14:54:48;;;;;;;3.33;2.33;;;;;;;;;;6258288;23;20009;-91
2022/02/18 14:57:16;;;;;;;5.45;1.85;;;;;;;;;;6240096;23;20352;-87
2022/02/18 14:59:44;;;;;;;2.90;2.53;;;;;;;;;;6241380;22;20027;-88
2022/02/18 15:02:13;;;;;;;1.73;1.50;;;;;;;;;;6221325;23;20031;-89